sensor_id;sensor_type;location;lat;lon;timestamp;pressure;altitude;pressure_sealevel;temperature;humidity
8627;BME280;4351;51.422;6.794;2023-03-03T00:01:01;102209.47;;;2.39;100.00
8627;BME280;4351;51.422;6.794;2023-03-03T00:03:29;102207.72;;;2.35;100.00
8627;BME280;4351;51.422;6.794;2023-03-03T00:05:57;102205.06;;;2.32;100.00
8627;BME280;4351;51.422;6.794;2023-03-03T00:08:28;102197.06;;;2.27;100.00
8627;BME280;4351;51.422;6.794;2023-03-03T00:10:57;102201.44;;;2.53;100.00
8627;BME280;4351;51.422;6.794;2023-03-03T00:13:26;102209.47;;;2.45;100.00
8627;BME280;4351;51.422;6.794;2023-03-03T00:16:09;102213.88;;;2.54;100.00
8627;BME280;4351;51.422;6.794;2023-03-03T00:18:41;102212.09;;;2.53;100.00
8627;BME280;4351;51.422;6.794;2023-03-03T00:21:31;102219.22;;;2.45;100.00
8627;BME280;4351;51.422;6.794;2023-03-03T00:24:20;102221.88;;;2.59;100.00
8627;BME280;4351;51.422;6.794;2023-03-03T00:26:49;102230.69;;;2.72;100.00
8627;BME280;4351;51.422;6.794;2023-03-03T00:29:30;102230.69;;;2.72;100.00
8627;BME280;4351;51.422;6.794;2023-03-03T00:32:23;102225.47;;;2.36;100.00
8627;BME280;4351;51.422;6.794;2023-03-03T00:34:52;102244.03;;;2.59;100.00
8627;BME280;4351;51.422;6.794;2023-03-03T00:37:31;102228.09;;;2.44;100.00
8627;BME280;4351;51.422;6.794;2023-03-03T00:40:19;102235.22;;;2.38;100.00
8627;BME280;4351;51.422;6.794;2023-03-03T00:42:50;102242.34;;;2.32;100.00
8627;BME280;4351;51.422;6.794;2023-03-03T00:45:30;102247.69;;;2.21;100.00
8627;BME280;4351;51.422;6.794;2023-03-03T00:48:07;102249.47;;;2.28;100.00
8627;BME280;4351;51.422;6.794;2023-03-03T00:50:39;102245.84;;;2.51;100.00
8627;BME280;4351;51.422;6.794;2023-03-03T00:53:11;102256.50;;;2.60;100.00
8627;BME280;4351;51.422;6.794;2023-03-03T00:55:42;102259.16;;;2.57;100.00
8627;BME280;4351;51.422;6.794;2023-03-03T00:58:11;102259.13;;;2.71;100.00
8627;BME280;4351;51.422;6.794;2023-03-03T01:00:43;102255.59;;;2.60;100.00
8627;BME280;4351;51.422;6.794;2023-03-03T01:03:15;102254.66;;;2.75;100.00
8627;BME280;4351;51.422;6.794;2023-03-03T01:05:44;102260.09;;;2.34;100.00
8627;BME280;4351;51.422;6.794;2023-03-03T01:08:12;102253.00;;;2.46;100.00
8627;BME280;4351;51.422;6.794;2023-03-03T01:10:45;102259.19;;;2.30;100.00
8627;BME280;4351;51.422;6.794;2023-03-03T01:13:17;102260.97;;;2.41;100.00
8627;BME280;4351;51.422;6.794;2023-03-03T01:15:45;102263.66;;;2.28;100.00
8627;BME280;4351;51.422;6.794;2023-03-03T01:18:13;102254.75;;;2.37;100.00
8627;BME280;4351;51.422;6.794;2023-03-03T01:20:41;102264.50;;;2.52;100.00
8627;BME280;4351;51.422;6.794;2023-03-03T01:23:10;102258.31;;;2.43;100.00
8627;BME280;4351;51.422;6.794;2023-03-03T01:25:38;102258.31;;;2.33;100.00
8627;BME280;4351;51.422;6.794;2023-03-03T01:28:08;102252.13;;;2.29;100.00
8627;BME280;4351;51.422;6.794;2023-03-03T01:30:36;102256.56;;;2.32;100.00
8627;BME280;4351;51.422;6.794;2023-03-03T01:33:04;102266.28;;;2.39;100.00
8627;BME280;4351;51.422;6.794;2023-03-03T01:35:32;102267.16;;;2.60;100.00
8627;BME280;4351;51.422;6.794;2023-03-03T01:38:02;102267.06;;;2.85;100.00
8627;BME280;4351;51.422;6.794;2023-03-03T01:40:30;102262.72;;;2.51;100.00
8627;BME280;4351;51.422;6.794;2023-03-03T01:42:59;102260.09;;;2.40;100.00
8627;BME280;4351;51.422;6.794;2023-03-03T01:45:29;102261.00;;;2.36;100.00
8627;BME280;4351;51.422;6.794;2023-03-03T01:48:00;102256.53;;;2.20;100.00
8627;BME280;4351;51.422;6.794;2023-03-03T01:50:34;102265.44;;;2.34;100.00
8627;BME280;4351;51.422;6.794;2023-03-03T01:53:05;102268.97;;;2.46;100.00
8627;BME280;4351;51.422;6.794;2023-03-03T01:55:38;102262.75;;;2.37;100.00
8627;BME280;4351;51.422;6.794;2023-03-03T01:58:10;102264.50;;;2.52;100.00
8627;BME280;4351;51.422;6.794;2023-03-03T02:00:43;102262.72;;;2.61;100.00
8627;BME280;4351;51.422;6.794;2023-03-03T02:03:12;102257.41;;;2.33;100.00
8627;BME280;4351;51.422;6.794;2023-03-03T02:05:41;102264.50;;;2.41;100.00
8627;BME280;4351;51.422;6.794;2023-03-03T02:08:11;102260.13;;;2.28;100.00
8627;BME280;4351;51.422;6.794;2023-03-03T02:10:43;102256.56;;;2.32;100.00
8627;BME280;4351;51.422;6.794;2023-03-03T02:13:12;102249.44;;;2.39;100.00
8627;BME280;4351;51.422;6.794;2023-03-03T02:15:42;102246.78;;;2.29;100.00
8627;BME280;4351;51.422;6.794;2023-03-03T02:18:12;102251.22;;;2.32;100.00
8627;BME280;4351;51.422;6.794;2023-03-03T02:20:47;102252.13;;;2.18;100.00
8627;BME280;4351;51.422;6.794;2023-03-03T02:23:22;102245.00;;;2.36;100.00
8627;BME280;4351;51.422;6.794;2023-03-03T02:26:04;102250.34;;;2.22;100.00
8627;BME280;4351;51.422;6.794;2023-03-03T02:28:34;102256.56;;;2.32;100.00
8627;BME280;4351;51.422;6.794;2023-03-03T02:31:07;102254.75;;;2.44;100.00
8627;BME280;4351;51.422;6.794;2023-03-03T02:33:40;102256.56;;;2.32;100.00
8627;BME280;4351;51.422;6.794;2023-03-03T02:36:11;102260.97;;;2.39;100.00
8627;BME280;4351;51.422;6.794;2023-03-03T02:38:43;102259.16;;;2.52;100.00
8627;BME280;4351;51.422;6.794;2023-03-03T02:41:17;102270.78;;;2.28;100.00
8627;BME280;4351;51.422;6.794;2023-03-03T02:43:51;102268.97;;;2.27;100.00
8627;BME280;4351;51.422;6.794;2023-03-03T02:46:21;102275.19;;;2.24;100.00
8627;BME280;4351;51.422;6.794;2023-03-03T02:48:49;102268.97;;;2.27;100.00
8627;BME280;4351;51.422;6.794;2023-03-03T02:51:17;102263.66;;;2.21;100.00
8627;BME280;4351;51.422;6.794;2023-03-03T02:53:45;102269.00;;;2.13;100.00
8627;BME280;4351;51.422;6.794;2023-03-03T02:56:14;102269.88;;;2.18;100.00
8627;BME280;4351;51.422;6.794;2023-03-03T02:58:42;102275.19;;;1.96;100.00
8627;BME280;4351;51.422;6.794;2023-03-03T03:01:10;102268.09;;;2.09;100.00
8627;BME280;4351;51.422;6.794;2023-03-03T03:03:39;102271.66;;;2.35;100.00
8627;BME280;4351;51.422;6.794;2023-03-03T03:06:07;102276.09;;;2.03;100.00
8627;BME280;4351;51.422;6.794;2023-03-03T03:08:36;102277.00;;;2.13;100.00
8627;BME280;4351;51.422;6.794;2023-03-03T03:11:04;102282.31;;;2.30;100.00
8627;BME280;4351;51.422;6.794;2023-03-03T03:13:34;102271.66;;;2.19;100.00
8627;BME280;4351;51.422;6.794;2023-03-03T03:16:02;102280.56;;;2.15;100.00
8627;BME280;4351;51.422;6.794;2023-03-03T03:18:30;102268.97;;;2.17;100.00
8627;BME280;4351;51.422;6.794;2023-03-03T03:21:05;102274.31;;;2.11;100.00
8627;BME280;4351;51.422;6.794;2023-03-03T03:23:33;102285.88;;;1.93;100.00
8627;BME280;4351;51.422;6.794;2023-03-03T03:26:02;102289.41;;;2.01;100.00
8627;BME280;4351;51.422;6.794;2023-03-03T03:28:30;102293.88;;;2.10;100.00
8627;BME280;4351;51.422;6.794;2023-03-03T03:31:00;102297.41;;;2.03;100.00
8627;BME280;4351;51.422;6.794;2023-03-03T03:33:29;102303.63;;;2.21;100.00
8627;BME280;4351;51.422;6.794;2023-03-03T03:35:58;102302.72;;;2.03;100.00
8627;BME280;4351;51.422;6.794;2023-03-03T03:38:27;102305.38;;;1.98;100.00
8627;BME280;4351;51.422;6.794;2023-03-03T03:40:57;102309.81;;;2.01;100.00
8627;BME280;4351;51.422;6.794;2023-03-03T03:43:26;102306.25;;;1.95;100.00
8627;BME280;4351;51.422;6.794;2023-03-03T03:45:54;102312.50;;;2.07;100.00
8627;BME280;4351;51.422;6.794;2023-03-03T03:48:24;102304.47;;;1.85;100.00
8627;BME280;4351;51.422;6.794;2023-03-03T03:50:52;102299.19;;;2.01;100.00
8627;BME280;4351;51.422;6.794;2023-03-03T03:53:23;102301.84;;;1.94;100.00
8627;BME280;4351;51.422;6.794;2023-03-03T03:55:51;102305.38;;;1.97;100.00
8627;BME280;4351;51.422;6.794;2023-03-03T03:58:19;102304.50;;;1.94;100.00
8627;BME280;4351;51.422;6.794;2023-03-03T04:00:53;102305.41;;;1.95;100.00
8627;BME280;4351;51.422;6.794;2023-03-03T04:03:21;102317.81;;;2.13;100.00
8627;BME280;4351;51.422;6.794;2023-03-03T04:05:52;102316.94;;;2.11;100.00
8627;BME280;4351;51.422;6.794;2023-03-03T04:08:21;102323.13;;;1.94;100.00
8627;BME280;4351;51.422;6.794;2023-03-03T04:10:49;102316.03;;;1.97;100.00
8627;BME280;4351;51.422;6.794;2023-03-03T04:13:18;102319.59;;;1.91;100.00
8627;BME280;4351;51.422;6.794;2023-03-03T04:15:46;102325.78;;;1.91;100.00
8627;BME280;4351;51.422;6.794;2023-03-03T04:18:15;102333.81;;;2.10;100.00
8627;BME280;4351;51.422;6.794;2023-03-03T04:20:44;102318.69;;;1.87;100.00
8627;BME280;4351;51.422;6.794;2023-03-03T04:23:14;102319.56;;;1.78;100.00
8627;BME280;4351;51.422;6.794;2023-03-03T04:25:42;102321.34;;;1.73;100.00
8627;BME280;4351;51.422;6.794;2023-03-03T04:28:13;102314.22;;;1.77;100.00
8627;BME280;4351;51.422;6.794;2023-03-03T04:30:42;102316.88;;;1.58;100.00
8627;BME280;4351;51.422;6.794;2023-03-03T04:33:12;102314.19;;;1.61;100.00
8627;BME280;4351;51.422;6.794;2023-03-03T04:35:40;102315.06;;;1.54;100.00
8627;BME280;4351;51.422;6.794;2023-03-03T04:38:08;102315.97;;;1.67;100.00
8627;BME280;4351;51.422;6.794;2023-03-03T04:40:40;102320.41;;;1.57;100.00
8627;BME280;4351;51.422;6.794;2023-03-03T04:43:12;102315.09;;;1.69;100.00
8627;BME280;4351;51.422;6.794;2023-03-03T04:45:40;102319.53;;;1.61;100.00
8627;BME280;4351;51.422;6.794;2023-03-03T04:48:08;102324.88;;;1.78;100.00
8627;BME280;4351;51.422;6.794;2023-03-03T04:50:36;102324.84;;;1.63;100.00
8627;BME280;4351;51.422;6.794;2023-03-03T04:53:04;102319.50;;;1.56;100.00
8627;BME280;4351;51.422;6.794;2023-03-03T04:55:34;102324.84;;;1.67;100.00
8627;BME280;4351;51.422;6.794;2023-03-03T04:58:05;102323.09;;;1.66;100.00
8627;BME280;4351;51.422;6.794;2023-03-03T05:00:35;102331.94;;;1.71;100.00
8627;BME280;4351;51.422;6.794;2023-03-03T05:03:03;102334.63;;;1.68;100.00
8627;BME280;4351;51.422;6.794;2023-03-03T05:05:31;102331.94;;;1.65;100.00
8627;BME280;4351;51.422;6.794;2023-03-03T05:07:58;102342.63;;;1.68;100.00
8627;BME280;4351;51.422;6.794;2023-03-03T05:10:26;102341.72;;;1.69;100.00
8627;BME280;4351;51.422;6.794;2023-03-03T05:12:55;102337.28;;;1.78;100.00
8627;BME280;4351;51.422;6.794;2023-03-03T05:15:24;102334.63;;;1.71;100.00
8627;BME280;4351;51.422;6.794;2023-03-03T05:17:52;102333.78;;;1.82;100.00
8627;BME280;4351;51.422;6.794;2023-03-03T05:20:22;102332.88;;;1.75;100.00
8627;BME280;4351;51.422;6.794;2023-03-03T05:22:50;102332.84;;;1.58;100.00
8627;BME280;4351;51.422;6.794;2023-03-03T05:25:18;102340.84;;;1.75;100.00
8627;BME280;4351;51.422;6.794;2023-03-03T05:27:46;102327.56;;;1.83;100.00
8627;BME280;4351;51.422;6.794;2023-03-03T05:30:14;102333.72;;;1.63;100.00
8627;BME280;4351;51.422;6.794;2023-03-03T05:32:43;102331.97;;;1.76;100.00
8627;BME280;4351;51.422;6.794;2023-03-03T05:35:12;102326.63;;;1.70;100.00
8627;BME280;4351;51.422;6.794;2023-03-03T05:37:40;102331.03;;;1.54;100.00
8627;BME280;4351;51.422;6.794;2023-03-03T05:40:13;102329.28;;;1.62;100.00
8627;BME280;4351;51.422;6.794;2023-03-03T05:42:41;102339.94;;;1.62;100.00
8627;BME280;4351;51.422;6.794;2023-03-03T05:45:09;102334.56;;;1.56;100.00
8627;BME280;4351;51.422;6.794;2023-03-03T05:47:37;102340.81;;;1.58;100.00
8627;BME280;4351;51.422;6.794;2023-03-03T05:50:08;102339.97;;;1.87;100.00
8627;BME280;4351;51.422;6.794;2023-03-03T05:52:37;102343.53;;;1.83;100.00
8627;BME280;4351;51.422;6.794;2023-03-03T05:55:06;102347.94;;;1.73;100.00
8627;BME280;4351;51.422;6.794;2023-03-03T05:57:34;102347.06;;;1.91;100.00
8627;BME280;4351;51.422;6.794;2023-03-03T06:00:03;102347.09;;;2.02;100.00
8627;BME280;4351;51.422;6.794;2023-03-03T06:02:37;102343.50;;;1.70;100.00
8627;BME280;4351;51.422;6.794;2023-03-03T06:05:07;102348.00;;;1.95;100.00
8627;BME280;4351;51.422;6.794;2023-03-03T06:07:36;102345.34;;;2.12;100.00
8627;BME280;4351;51.422;6.794;2023-03-03T06:10:05;102335.59;;;2.14;100.00
8627;BME280;4351;51.422;6.794;2023-03-03T06:12:36;102340.91;;;2.13;100.00
8627;BME280;4351;51.422;6.794;2023-03-03T06:15:05;102346.19;;;1.88;100.00
8627;BME280;4351;51.422;6.794;2023-03-03T06:17:33;102342.63;;;1.93;100.00
8627;BME280;4351;51.422;6.794;2023-03-03T06:20:01;102356.00;;;2.06;100.00
8627;BME280;4351;51.422;6.794;2023-03-03T06:22:31;102352.44;;;2.01;100.00
8627;BME280;4351;51.422;6.794;2023-03-03T06:24:59;102360.41;;;1.90;100.00
8627;BME280;4351;51.422;6.794;2023-03-03T06:27:27;102363.06;;;2.01;100.00
8627;BME280;4351;51.422;6.794;2023-03-03T06:29:55;102361.28;;;1.92;100.00
8627;BME280;4351;51.422;6.794;2023-03-03T06:32:23;102372.84;;;1.99;100.00
8627;BME280;4351;51.422;6.794;2023-03-03T06:34:50;102378.19;;;2.03;100.00
8627;BME280;4351;51.422;6.794;2023-03-03T06:37:19;102379.06;;;2.04;100.00
8627;BME280;4351;51.422;6.794;2023-03-03T06:39:48;102377.31;;;2.18;100.00
8627;BME280;4351;51.422;6.794;2023-03-03T06:42:18;102369.25;;;1.93;100.00
8627;BME280;4351;51.422;6.794;2023-03-03T06:44:46;102370.19;;;1.97;100.00
8627;BME280;4351;51.422;6.794;2023-03-03T06:47:14;102374.59;;;1.97;100.00
8627;BME280;4351;51.422;6.794;2023-03-03T06:49:42;102381.72;;;2.09;100.00
8627;BME280;4351;51.422;6.794;2023-03-03T06:52:12;102387.91;;;1.92;100.00
8627;BME280;4351;51.422;6.794;2023-03-03T06:54:40;102391.47;;;1.92;100.00
8627;BME280;4351;51.422;6.794;2023-03-03T06:57:16;102397.69;;;2.07;100.00
8627;BME280;4351;51.422;6.794;2023-03-03T06:59:45;102395.94;;;2.01;100.00
8627;BME280;4351;51.422;6.794;2023-03-03T07:02:16;102393.25;;;2.09;100.00
8627;BME280;4351;51.422;6.794;2023-03-03T07:04:45;102393.28;;;2.08;100.00
8627;BME280;4351;51.422;6.794;2023-03-03T07:07:16;102397.72;;;2.15;100.00
8627;BME280;4351;51.422;6.794;2023-03-03T07:09:47;102395.00;;;1.88;100.00
8627;BME280;4351;51.422;6.794;2023-03-03T07:12:18;102390.59;;;2.09;100.00
8627;BME280;4351;51.422;6.794;2023-03-03T07:14:49;102395.03;;;2.01;100.00
8627;BME280;4351;51.422;6.794;2023-03-03T07:17:23;102389.72;;;2.30;100.00
8627;BME280;4351;51.422;6.794;2023-03-03T07:19:52;102386.19;;;2.22;100.00
8627;BME280;4351;51.422;6.794;2023-03-03T07:22:22;102387.94;;;2.22;100.00
8627;BME280;4351;51.422;6.794;2023-03-03T07:24:53;102396.84;;;2.43;100.00
8627;BME280;4351;51.422;6.794;2023-03-03T07:27:24;102390.59;;;2.22;100.00
8627;BME280;4351;51.422;6.794;2023-03-03T07:29:54;102403.97;;;2.40;100.00
8627;BME280;4351;51.422;6.794;2023-03-03T07:32:26;102392.41;;;2.21;100.00
8627;BME280;4351;51.422;6.794;2023-03-03T07:34:55;102397.75;;;2.37;100.00
8627;BME280;4351;51.422;6.794;2023-03-03T07:37:29;102403.03;;;2.07;100.00
8627;BME280;4351;51.422;6.794;2023-03-03T07:39:58;102414.53;;;1.93;100.00
8627;BME280;4351;51.422;6.794;2023-03-03T07:42:36;102410.97;;;1.83;100.00
8627;BME280;4351;51.422;6.794;2023-03-03T07:45:26;102418.13;;;2.02;100.00
8627;BME280;4351;51.422;6.794;2023-03-03T07:48:00;102419.84;;;1.93;100.00
8627;BME280;4351;51.422;6.794;2023-03-03T07:50:33;102419.00;;;2.09;100.00
8627;BME280;4351;51.422;6.794;2023-03-03T07:53:01;102423.47;;;2.33;100.00
8627;BME280;4351;51.422;6.794;2023-03-03T07:55:33;102425.28;;;2.28;100.00
8627;BME280;4351;51.422;6.794;2023-03-03T07:58:19;102431.47;;;2.24;100.00
8627;BME280;4351;51.422;6.794;2023-03-03T08:03:55;102434.13;;;2.14;100.00
8627;BME280;4351;51.422;6.794;2023-03-03T08:06:43;102434.13;;;2.22;100.00
8627;BME280;4351;51.422;6.794;2023-03-03T08:09:36;102436.81;;;2.33;100.00
8627;BME280;4351;51.422;6.794;2023-03-03T08:12:30;102438.56;;;2.37;100.00
8627;BME280;4351;51.422;6.794;2023-03-03T08:15:18;102439.47;;;2.61;100.00
8627;BME280;4351;51.422;6.794;2023-03-03T08:17:48;102435.94;;;2.51;100.00
8627;BME280;4351;51.422;6.794;2023-03-03T08:20:38;102427.94;;;2.51;100.00
8627;BME280;4351;51.422;6.794;2023-03-03T08:23:07;102433.22;;;2.14;100.00
8627;BME280;4351;51.422;6.794;2023-03-03T08:25:36;102429.72;;;2.52;100.00
8627;BME280;4351;51.422;6.794;2023-03-03T08:28:04;102426.19;;;2.46;100.00
8627;BME280;4351;51.422;6.794;2023-03-03T08:30:33;102440.34;;;2.15;100.00
8627;BME280;4351;51.422;6.794;2023-03-03T08:33:01;102437.69;;;2.26;100.00
8627;BME280;4351;51.422;6.794;2023-03-03T08:35:29;102441.22;;;2.14;100.00
8627;BME280;4351;51.422;6.794;2023-03-03T08:37:57;102449.25;;;2.28;100.00
8627;BME280;4351;51.422;6.794;2023-03-03T08:40:25;102451.00;;;2.15;100.00
8627;BME280;4351;51.422;6.794;2023-03-03T08:42:53;102443.88;;;2.12;100.00
8627;BME280;4351;51.422;6.794;2023-03-03T08:45:21;102461.66;;;2.21;100.00
8627;BME280;4351;51.422;6.794;2023-03-03T08:47:50;102453.66;;;2.29;100.00
8627;BME280;4351;51.422;6.794;2023-03-03T08:50:19;102451.94;;;2.51;100.00
8627;BME280;4351;51.422;6.794;2023-03-03T08:52:47;102453.69;;;2.45;100.00
8627;BME280;4351;51.422;6.794;2023-03-03T08:55:15;102458.13;;;2.61;100.00
8627;BME280;4351;51.422;6.794;2023-03-03T08:57:43;102452.81;;;2.46;100.00
8627;BME280;4351;51.422;6.794;2023-03-03T09:00:14;102459.91;;;2.45;100.00
8627;BME280;4351;51.422;6.794;2023-03-03T09:02:43;102471.47;;;2.35;100.00
8627;BME280;4351;51.422;6.794;2023-03-03T09:05:13;102464.28;;;2.13;100.00
8627;BME280;4351;51.422;6.794;2023-03-03T09:07:42;102469.63;;;2.10;100.00
8627;BME280;4351;51.422;6.794;2023-03-03T09:10:15;102470.53;;;2.33;100.00
8627;BME280;4351;51.422;6.794;2023-03-03T09:12:45;102477.63;;;2.15;100.00
8627;BME280;4351;51.422;6.794;2023-03-03T09:15:21;102482.03;;;2.08;100.00
8627;BME280;4351;51.422;6.794;2023-03-03T09:17:51;102482.09;;;2.44;100.00
8627;BME280;4351;51.422;6.794;2023-03-03T09:20:38;102488.31;;;2.38;100.00
8627;BME280;4351;51.422;6.794;2023-03-03T09:23:32;102485.66;;;2.38;100.00
8627;BME280;4351;51.422;6.794;2023-03-03T09:26:24;102480.34;;;2.38;100.00
8627;BME280;4351;51.422;6.794;2023-03-03T09:28:55;102483.88;;;2.40;100.00
8627;BME280;4351;51.422;6.794;2023-03-03T09:31:26;102488.34;;;2.49;100.00
8627;BME280;4351;51.422;6.794;2023-03-03T09:33:54;102491.00;;;2.57;100.00
8627;BME280;4351;51.422;6.794;2023-03-03T09:36:27;102492.78;;;2.43;100.00
8627;BME280;4351;51.422;6.794;2023-03-03T09:38:56;102485.69;;;2.67;100.00
8627;BME280;4351;51.422;6.794;2023-03-03T09:41:45;102487.47;;;2.90;100.00
8627;BME280;4351;51.422;6.794;2023-03-03T09:44:47;102490.16;;;2.97;100.00
8627;BME280;4351;51.422;6.794;2023-03-03T09:47:37;102490.13;;;2.90;100.00
8627;BME280;4351;51.422;6.794;2023-03-03T09:50:20;102487.47;;;2.64;100.00
8627;BME280;4351;51.422;6.794;2023-03-03T09:53:01;102496.34;;;2.54;100.00
8627;BME280;4351;51.422;6.794;2023-03-03T09:55:42;102499.91;;;2.66;100.00
8627;BME280;4351;51.422;6.794;2023-03-03T09:58:33;102495.47;;;2.88;100.00
8627;BME280;4351;51.422;6.794;2023-03-03T10:01:12;102503.47;;;3.15;100.00
8627;BME280;4351;51.422;6.794;2023-03-03T10:06:42;102492.81;;;2.74;100.00
8627;BME280;4351;51.422;6.794;2023-03-03T10:12:26;102497.28;;;2.83;100.00
8627;BME280;4351;51.422;6.794;2023-03-03T10:15:10;102504.38;;;2.98;100.00
8627;BME280;4351;51.422;6.794;2023-03-03T10:17:50;102501.69;;;3.10;100.00
8627;BME280;4351;51.422;6.794;2023-03-03T10:23:20;102494.53;;;3.31;100.00
8627;BME280;4351;51.422;6.794;2023-03-03T10:26:07;102495.44;;;3.35;100.00
8627;BME280;4351;51.422;6.794;2023-03-03T10:29:05;102492.78;;;3.19;100.00
8627;BME280;4351;51.422;6.794;2023-03-03T10:32:11;102498.09;;;3.27;100.00
8627;BME280;4351;51.422;6.794;2023-03-03T10:34:59;102490.09;;;3.41;100.00
8627;BME280;4351;51.422;6.794;2023-03-03T10:37:37;102498.97;;;3.39;100.00
8627;BME280;4351;51.422;6.794;2023-03-03T10:40:15;102492.72;;;3.49;100.00
8627;BME280;4351;51.422;6.794;2023-03-03T10:42:57;102492.75;;;3.40;100.00
8627;BME280;4351;51.422;6.794;2023-03-03T10:45:42;102489.16;;;3.56;100.00
8627;BME280;4351;51.422;6.794;2023-03-03T10:48:29;102494.44;;;3.72;100.00
8627;BME280;4351;51.422;6.794;2023-03-03T10:51:09;102486.41;;;3.78;100.00
8627;BME280;4351;51.422;6.794;2023-03-03T10:53:53;102492.72;;;3.52;100.00
8627;BME280;4351;51.422;6.794;2023-03-03T10:56:33;102496.22;;;3.70;100.00
8627;BME280;4351;51.422;6.794;2023-03-03T10:59:34;102487.19;;;3.99;100.00
8627;BME280;4351;51.422;6.794;2023-03-03T11:02:14;102489.94;;;3.90;100.00
8627;BME280;4351;51.422;6.794;2023-03-03T11:05:10;102486.38;;;3.88;100.00
8627;BME280;4351;51.422;6.794;2023-03-03T11:07:46;102485.53;;;3.73;100.00
8627;BME280;4351;51.422;6.794;2023-03-03T11:10:39;102488.19;;;3.76;100.00
8627;BME280;4351;51.422;6.794;2023-03-03T11:13:18;102486.50;;;3.50;100.00
8627;BME280;4351;51.422;6.794;2023-03-03T11:15:59;102490.03;;;3.63;100.00
8627;BME280;4351;51.422;6.794;2023-03-03T11:18:39;102488.28;;;3.48;100.00
8627;BME280;4351;51.422;6.794;2023-03-03T11:21:19;102491.81;;;3.66;100.00
8627;BME280;4351;51.422;6.794;2023-03-03T11:23:59;102475.81;;;3.53;100.00
8627;BME280;4351;51.422;6.794;2023-03-03T11:26:40;102483.81;;;3.53;100.00
8627;BME280;4351;51.422;6.794;2023-03-03T11:29:39;102483.72;;;3.75;100.00
8627;BME280;4351;51.422;6.794;2023-03-03T11:32:20;102482.94;;;3.53;100.00
8627;BME280;4351;51.422;6.794;2023-03-03T11:35:02;102483.84;;;3.36;100.00
8627;BME280;4351;51.422;6.794;2023-03-03T11:37:38;102487.28;;;3.77;100.00
8627;BME280;4351;51.422;6.794;2023-03-03T11:40:13;102481.09;;;3.74;100.00
8627;BME280;4351;51.422;6.794;2023-03-03T11:42:52;102485.41;;;4.03;100.00
8627;BME280;4351;51.422;6.794;2023-03-03T11:45:25;102480.03;;;4.11;100.00
8627;BME280;4351;51.422;6.794;2023-03-03T11:48:00;102476.47;;;4.09;100.00
8627;BME280;4351;51.422;6.794;2023-03-03T11:50:38;102465.81;;;4.06;100.00
8627;BME280;4351;51.422;6.794;2023-03-03T11:53:23;102465.75;;;4.13;100.00
8627;BME280;4351;51.422;6.794;2023-03-03T11:55:56;102456.75;;;4.33;100.00
8627;BME280;4351;51.422;6.794;2023-03-03T11:58:30;102455.00;;;4.21;100.00
8627;BME280;4351;51.422;6.794;2023-03-03T12:01:08;102463.16;;;3.98;100.00
8627;BME280;4351;51.422;6.794;2023-03-03T12:03:42;102457.81;;;3.99;100.00
8627;BME280;4351;51.422;6.794;2023-03-03T12:06:20;102464.00;;;4.11;100.00
8627;BME280;4351;51.422;6.794;2023-03-03T12:09:17;102455.09;;;4.09;100.00
8627;BME280;4351;51.422;6.794;2023-03-03T12:11:52;102456.78;;;4.27;100.00
8627;BME280;4351;51.422;6.794;2023-03-03T12:14:34;102462.16;;;4.22;100.00
8627;BME280;4351;51.422;6.794;2023-03-03T12:17:12;102451.38;;;4.38;100.00
8627;BME280;4351;51.422;6.794;2023-03-03T12:19:55;102454.97;;;4.31;100.00
8627;BME280;4351;51.422;6.794;2023-03-03T12:22:30;102451.38;;;4.38;100.00
8627;BME280;4351;51.422;6.794;2023-03-03T12:25:29;102441.72;;;4.10;100.00
8627;BME280;4351;51.422;6.794;2023-03-03T12:28:03;102438.81;;;4.50;100.00
8627;BME280;4351;51.422;6.794;2023-03-03T12:31:00;102438.88;;;4.40;100.00
8627;BME280;4351;51.422;6.794;2023-03-03T12:33:50;102431.84;;;4.27;100.00
8627;BME280;4351;51.422;6.794;2023-03-03T12:36:49;102431.56;;;4.61;100.00
8627;BME280;4351;51.422;6.794;2023-03-03T12:39:43;102429.09;;;4.41;100.00
8627;BME280;4351;51.422;6.794;2023-03-03T12:42:20;102428.75;;;4.78;100.00
8627;BME280;4351;51.422;6.794;2023-03-03T12:44:58;102420.81;;;4.69;100.00
8627;BME280;4351;51.422;6.794;2023-03-03T12:47:37;102419.00;;;4.72;100.00
8627;BME280;4351;51.422;6.794;2023-03-03T12:50:21;102431.44;;;4.77;100.00
8627;BME280;4351;51.422;6.794;2023-03-03T12:52:57;102431.38;;;4.86;100.00
8627;BME280;4351;51.422;6.794;2023-03-03T12:55:36;102414.88;;;4.34;100.00
8627;BME280;4351;51.422;6.794;2023-03-03T12:58:22;102424.44;;;4.63;100.00
8627;BME280;4351;51.422;6.794;2023-03-03T13:01:01;102424.81;;;4.14;100.00
8627;BME280;4351;51.422;6.794;2023-03-03T13:03:38;102422.66;;;4.62;100.00
8627;BME280;4351;51.422;6.794;2023-03-03T13:06:27;102420.31;;;5.21;100.00
8627;BME280;4351;51.422;6.794;2023-03-03T13:09:02;102418.97;;;4.74;100.00
8627;BME280;4351;51.422;6.794;2023-03-03T13:11:42;102413.31;;;5.07;100.00
8627;BME280;4351;51.422;6.794;2023-03-03T13:14:22;102412.47;;;5.03;100.00
8627;BME280;4351;51.422;6.794;2023-03-03T13:17:02;102413.41;;;4.99;100.00
8627;BME280;4351;51.422;6.794;2023-03-03T13:19:37;102405.06;;;5.29;100.00
8627;BME280;4351;51.422;6.794;2023-03-03T13:22:12;102408.59;;;5.33;100.00
8627;BME280;4351;51.422;6.794;2023-03-03T13:24:53;102403.28;;;5.29;100.00
8627;BME280;4351;51.422;6.794;2023-03-03T13:27:31;102396.56;;;5.67;100.00
8627;BME280;4351;51.422;6.794;2023-03-03T13:30:14;102393.94;;;5.63;100.00
8627;BME280;4351;51.422;6.794;2023-03-03T13:32:48;102387.66;;;5.64;100.00
8627;BME280;4351;51.422;6.794;2023-03-03T13:35:31;102398.03;;;5.91;100.00
8627;BME280;4351;51.422;6.794;2023-03-03T13:38:01;102391.03;;;5.79;100.00
8627;BME280;4351;51.422;6.794;2023-03-03T13:40:40;102384.31;;;5.47;100.00
8627;BME280;4351;51.422;6.794;2023-03-03T13:43:16;102393.19;;;5.52;100.00
8627;BME280;4351;51.422;6.794;2023-03-03T13:45:55;102385.53;;;5.21;100.00
8627;BME280;4351;51.422;6.794;2023-03-03T13:48:37;102391.47;;;5.48;100.00
8627;BME280;4351;51.422;6.794;2023-03-03T13:51:18;102388.03;;;5.33;100.00
8627;BME280;4351;51.422;6.794;2023-03-03T13:53:56;102384.38;;;5.42;100.00
8627;BME280;4351;51.422;6.794;2023-03-03T13:56:37;102382.25;;;5.69;100.00
8627;BME280;4351;51.422;6.794;2023-03-03T13:59:18;102373.50;;;5.56;100.00